Terminal Aerodrome Forecast
Issued by NWS Louisville, KY

Home | Current Version | Previous Version | Text Only | Print | Product List | Glossary Off
Versions: 1 2 3 4 5 6 7 8 9 10 11 12 13 14 15

000
FTUS43 KLMK 060530
TAFLEX
TAF
KLEX 060530Z 0606/0706 29005KT P6SM SCT080
      TEMPO 0608/0612 4SM BR SKC
     FM061400 34010G16KT P6SM SCT050
     FM070100 VRB03KT P6SM SKC=

USA.gov is the U.S. government's official web portal to all federal, state and local government web resources and services.